createdAt,value
2022-09-26T00:01:42.954Z,34.15
2022-09-26T00:04:30.404Z,33.55
2022-09-26T00:07:00.082Z,34.92
2022-09-26T00:09:28.333Z,35.85
2022-09-26T00:11:58.052Z,34.20
2022-09-26T00:14:31.934Z,34.70
2022-09-26T00:17:01.265Z,33.53
2022-09-26T00:19:28.732Z,35.28
2022-09-26T00:21:58.050Z,33.00
2022-09-26T00:24:27.406Z,33.25
2022-09-26T00:26:54.857Z,38.85
2022-09-26T00:29:24.385Z,30.23
2022-09-26T00:31:52.325Z,33.95
2022-09-26T00:34:22.402Z,38.63
2022-09-26T00:36:52.673Z,32.67
2022-09-26T00:39:19.934Z,36.88
2022-09-26T00:41:49.638Z,38.75
2022-09-26T00:44:56.694Z,35.38
2022-09-26T00:47:35.402Z,35.75
2022-09-26T00:50:08.119Z,37.88
2022-09-26T00:52:42.828Z,30.95
2022-09-26T00:55:15.559Z,34.35
2022-09-26T00:57:51.566Z,31.55
2022-09-26T01:00:21.348Z,37.72
2022-09-26T01:02:53.798Z,39.25
2022-09-26T01:05:26.113Z,32.08
2022-09-26T01:07:59.047Z,32.85
2022-09-26T01:10:32.758Z,38.63
2022-09-26T01:13:02.136Z,35.20
2022-09-26T01:15:30.086Z,34.28
2022-09-26T01:18:00.180Z,34.63
2022-09-26T01:20:55.237Z,33.58
2022-09-26T01:23:46.583Z,35.78
2022-09-26T01:26:47.338Z,38.22
2022-09-26T01:29:26.582Z,36.95
2022-09-26T01:32:37.406Z,37.15
2022-09-26T01:35:27.303Z,38.30
2022-09-26T01:38:21.734Z,42.30
2022-09-26T01:41:34.147Z,33.58
2022-09-26T01:44:17.013Z,44.22
2022-09-26T01:49:28.397Z,36.97
2022-09-26T01:52:22.863Z,37.22
2022-09-26T01:55:03.606Z,34.88
2022-09-26T01:57:42.754Z,35.20
2022-09-26T02:00:14.307Z,34.05
2022-09-26T02:02:48.373Z,39.28
2022-09-26T02:05:24.342Z,40.72
2022-09-26T02:08:10.022Z,41.53
2022-09-26T02:10:49.067Z,41.92
2022-09-26T02:13:24.662Z,39.08
2022-09-26T02:15:57.270Z,38.72
2022-09-26T02:18:37.602Z,39.33
2022-09-26T02:21:22.128Z,41.42
2022-09-26T02:23:51.869Z,39.67
2022-09-26T02:26:19.560Z,34.85
2022-09-26T02:28:49.595Z,50.75
2022-09-26T02:31:23.611Z,49.92
2022-09-26T02:33:54.209Z,74.43
2022-09-26T02:36:24.456Z,73.18
2022-09-26T02:38:55.280Z,61.45
2022-09-26T02:42:00.574Z,63.83
2022-09-26T02:44:55.513Z,57.83
2022-09-26T02:47:55.029Z,59.58
2022-09-26T02:50:39.108Z,67.13
2022-09-26T02:53:23.889Z,62.88
2022-09-26T02:56:25.858Z,75.90
2022-09-26T02:59:35.826Z,64.18
2022-09-26T03:02:13.402Z,57.10
2022-09-26T03:05:00.040Z,57.60
2022-09-26T03:07:39.746Z,54.78
2022-09-26T03:10:09.563Z,58.30
2022-09-26T03:12:44.814Z,63.33
2022-09-26T03:15:14.189Z,47.83
2022-09-26T03:17:45.629Z,54.28
2022-09-26T03:20:20.395Z,43.10
2022-09-26T03:22:49.625Z,49.10
2022-09-26T03:25:22.506Z,42.42
2022-09-26T03:28:02.402Z,45.53
2022-09-26T03:30:33.953Z,57.03
2022-09-26T03:33:23.909Z,42.80
2022-09-26T03:35:54.660Z,46.15
2022-09-26T03:38:22.926Z,36.75
2022-09-26T03:41:00.569Z,41.95
2022-09-26T03:43:46.267Z,37.30
2022-09-26T03:46:16.156Z,51.70
2022-09-26T03:48:45.988Z,40.85
2022-09-26T03:51:15.591Z,45.55
2022-09-26T03:53:47.189Z,44.28
2022-09-26T03:56:18.840Z,43.72
2022-09-26T03:58:48.970Z,51.80
2022-09-26T04:01:19.585Z,43.35
2022-09-26T04:03:50.900Z,37.70
2022-09-26T04:06:20.828Z,43.65
2022-09-26T04:08:51.251Z,40.63
2022-09-26T04:11:21.714Z,46.55
2022-09-26T04:13:52.393Z,44.25
2022-09-26T04:16:23.789Z,43.83
2022-09-26T04:18:57.596Z,47.63
2022-09-26T04:21:29.868Z,43.58
2022-09-26T04:24:01.779Z,44.13
2022-09-26T04:26:29.186Z,45.38
2022-09-26T04:28:57.833Z,41.10
2022-09-26T04:31:39.624Z,39.45
2022-09-26T04:34:15.963Z,40.10
2022-09-26T04:36:43.704Z,34.40
2022-09-26T04:39:13.795Z,37.13
2022-09-26T04:41:40.911Z,41.83
2022-09-26T04:44:12.737Z,38.97
2022-09-26T04:46:42.150Z,41.97
2022-09-26T04:49:11.234Z,38.00
2022-09-26T04:51:38.608Z,39.72
2022-09-26T04:54:08.595Z,37.33
2022-09-26T04:56:43.552Z,41.85
2022-09-26T04:59:13.120Z,45.42
2022-09-26T05:01:54.920Z,45.38
2022-09-26T05:04:37.073Z,44.58
2022-09-26T05:07:04.510Z,42.80
2022-09-26T05:09:36.077Z,41.55
2022-09-26T05:12:13.315Z,48.17
2022-09-26T05:14:46.918Z,46.55
2022-09-26T05:17:15.492Z,49.75
2022-09-26T05:19:47.343Z,45.55
2022-09-26T05:22:21.405Z,45.67
2022-09-26T05:25:07.678Z,40.83
2022-09-26T05:27:41.422Z,43.50
2022-09-26T05:30:09.195Z,53.13
2022-09-26T05:32:47.455Z,40.10
2022-09-26T05:35:16.469Z,39.10
2022-09-26T05:37:44.419Z,43.40
2022-09-26T05:40:32.358Z,42.13
2022-09-26T05:43:05.349Z,43.33
2022-09-26T05:45:33.335Z,42.85
2022-09-26T05:48:06.018Z,45.90
2022-09-26T05:50:34.368Z,41.13
2022-09-26T05:53:02.571Z,39.55
2022-09-26T05:55:33.565Z,41.55
2022-09-26T05:58:08.505Z,40.83
2022-09-26T06:01:05.060Z,38.42
2022-09-26T06:03:37.171Z,39.20
2022-09-26T06:06:18.527Z,37.00
2022-09-26T06:08:47.037Z,34.60
2022-09-26T06:11:34.750Z,38.00
2022-09-26T06:14:02.840Z,42.65
2022-09-26T06:16:33.063Z,43.55
2022-09-26T06:19:02.508Z,43.10
2022-09-26T06:21:34.544Z,42.10
2022-09-26T06:24:09.087Z,36.83
2022-09-26T06:26:38.773Z,45.03
2022-09-26T06:29:07.502Z,49.30
2022-09-26T06:31:36.625Z,44.25
2022-09-26T06:34:12.066Z,53.70
2022-09-26T06:36:50.770Z,44.55
2022-09-26T06:39:18.217Z,45.13
2022-09-26T06:41:49.632Z,46.08
2022-09-26T06:44:36.225Z,44.03
2022-09-26T06:47:18.451Z,42.33
2022-09-26T06:49:49.153Z,42.47
2022-09-26T06:52:34.591Z,41.88
2022-09-26T06:55:03.770Z,56.85
2022-09-26T06:57:42.542Z,44.17
2022-09-26T07:00:16.249Z,47.22
2022-09-26T07:03:01.432Z,45.80
2022-09-26T07:05:49.771Z,47.03
2022-09-26T07:08:17.373Z,47.50
2022-09-26T07:10:47.171Z,48.95
2022-09-26T07:13:29.273Z,47.53
2022-09-26T07:16:01.946Z,47.35
2022-09-26T07:18:57.978Z,50.85
2022-09-26T07:21:59.712Z,50.22
2022-09-26T07:24:31.595Z,46.95
2022-09-26T07:26:58.859Z,45.90
2022-09-26T07:29:28.697Z,46.67
2022-09-26T07:31:59.606Z,53.92
2022-09-26T07:37:10.354Z,43.58
2022-09-26T07:39:40.153Z,46.95
2022-09-26T07:42:09.714Z,48.47
2022-09-26T07:45:20.575Z,46.50
2022-09-26T07:47:46.319Z,42.20
2022-09-26T07:50:38.782Z,50.13
2022-09-26T07:53:28.166Z,49.65
2022-09-26T07:56:20.761Z,51.35
2022-09-26T07:59:18.577Z,56.65
2022-09-26T08:02:24.057Z,59.83
2022-09-26T08:05:00.910Z,45.42
2022-09-26T08:07:35.628Z,48.17
2022-09-26T08:10:19.180Z,42.05
2022-09-26T08:13:07.397Z,42.38
2022-09-26T08:16:06.278Z,47.22
2022-09-26T08:18:41.563Z,45.63
2022-09-26T08:21:08.938Z,41.80
2022-09-26T08:23:36.396Z,44.80
2022-09-26T08:26:23.815Z,42.45
2022-09-26T08:28:57.735Z,45.78
2022-09-26T08:31:25.390Z,41.65
2022-09-26T08:33:55.430Z,39.63
2022-09-26T08:36:23.930Z,46.40
2022-09-26T08:39:05.906Z,47.28
2022-09-26T08:42:33.920Z,50.55
2022-09-26T08:46:03.514Z,41.75
2022-09-26T08:49:13.469Z,45.45
2022-09-26T08:51:50.738Z,41.13
2022-09-26T08:54:43.328Z,41.58
2022-09-26T08:57:41.887Z,41.60
2022-09-26T09:00:25.008Z,39.95
2022-09-26T09:03:16.029Z,43.33
2022-09-26T09:05:55.960Z,35.05
2022-09-26T09:08:30.013Z,40.50
2022-09-26T09:11:24.906Z,42.75
2022-09-26T09:14:07.141Z,45.53
2022-09-26T09:17:38.346Z,45.13
2022-09-26T09:20:31.386Z,42.38
2022-09-26T09:23:26.601Z,35.45
2022-09-26T09:27:52.210Z,34.72
2022-09-26T09:29:10.354Z,41.63
2022-09-26T09:31:43.036Z,37.75
2022-09-26T09:34:27.598Z,41.60
2022-09-26T09:37:23.854Z,38.08
2022-09-26T09:39:57.375Z,33.22
2022-09-26T09:42:48.160Z,37.92
2022-09-26T09:47:48.489Z,42.67
2022-09-26T09:50:41.388Z,37.50
2022-09-26T09:53:33.584Z,38.38
2022-09-26T09:56:16.075Z,43.70
2022-09-26T09:58:46.563Z,34.85
2022-09-26T10:01:28.479Z,46.17
2022-09-26T10:04:27.762Z,39.15
2022-09-26T10:06:55.830Z,38.60
2022-09-26T10:09:47.115Z,30.60
2022-09-26T10:12:31.141Z,38.03
2022-09-26T10:15:34.010Z,32.58
2022-09-26T10:18:26.041Z,31.27
2022-09-26T10:21:12.633Z,33.08
2022-09-26T10:23:46.846Z,28.90
2022-09-26T10:26:44.772Z,30.70
2022-09-26T10:29:38.314Z,29.85
2022-09-26T10:32:10.363Z,30.20
2022-09-26T10:34:42.654Z,27.70
2022-09-26T10:37:25.179Z,24.65
2022-09-26T10:40:21.084Z,35.20
2022-09-26T10:42:51.802Z,25.48
2022-09-26T10:45:27.193Z,20.67
2022-09-26T10:51:01.966Z,17.30
2022-09-26T10:53:52.119Z,22.52
2022-09-26T10:56:31.856Z,23.67
2022-09-26T10:59:06.008Z,27.13
2022-09-26T11:01:43.333Z,17.73
2022-09-26T11:04:39.751Z,23.20
2022-09-26T11:07:36.100Z,17.98
2022-09-26T11:10:25.395Z,20.05
2022-09-26T11:13:16.602Z,22.83
2022-09-26T11:16:04.825Z,20.65
2022-09-26T11:18:50.553Z,22.58
2022-09-26T11:21:29.419Z,18.15
2022-09-26T11:24:03.810Z,18.27
2022-09-26T11:26:49.344Z,18.98
2022-09-26T11:29:46.361Z,18.48
2022-09-26T11:32:41.429Z,19.30
2022-09-26T11:35:34.586Z,20.52
2022-09-26T11:38:12.934Z,26.60
2022-09-26T11:41:07.266Z,19.67
2022-09-26T11:43:50.984Z,15.32
2022-09-26T11:47:10.483Z,21.67
2022-09-26T11:49:52.946Z,13.77
2022-09-26T11:52:49.211Z,11.38
2022-09-26T11:55:30.999Z,21.88
2022-09-26T11:58:16.648Z,16.77
2022-09-26T12:01:16.886Z,15.50
2022-09-26T12:04:26.602Z,15.93
2022-09-26T12:07:11.491Z,15.45
2022-09-26T12:09:51.488Z,15.45
2022-09-26T12:12:42.515Z,18.55
2022-09-26T12:15:30.887Z,15.10
2022-09-26T12:18:04.240Z,16.55
2022-09-26T12:20:47.507Z,12.57
2022-09-26T12:23:23.640Z,12.55
2022-09-26T12:26:15.281Z,13.23
2022-09-26T12:29:09.776Z,12.57
2022-09-26T12:32:25.666Z,24.23
2022-09-26T12:35:31.379Z,12.43
2022-09-26T12:38:33.668Z,12.00
2022-09-26T12:41:31.645Z,14.88
2022-09-26T12:44:07.831Z,13.88
2022-09-26T12:46:59.345Z,15.55
2022-09-26T12:50:05.203Z,14.38
2022-09-26T12:53:01.548Z,12.07
2022-09-26T12:56:11.026Z,10.35
2022-09-26T12:58:47.395Z,10.88
2022-09-26T13:01:49.743Z,15.77
2022-09-26T13:04:34.099Z,19.90
2022-09-26T13:07:42.406Z,15.95
2022-09-26T13:10:22.010Z,15.18
2022-09-26T13:13:11.196Z,9.82
2022-09-26T13:16:02.447Z,9.80
2022-09-26T13:18:38.059Z,11.57
2022-09-26T13:21:41.211Z,13.52
2022-09-26T13:24:21.321Z,15.05
2022-09-26T13:27:00.447Z,31.83
2022-09-26T13:29:37.536Z,17.00
2022-09-26T13:32:28.240Z,10.43
2022-09-26T13:35:04.172Z,13.00
2022-09-26T13:37:56.630Z,11.02
2022-09-26T13:40:45.473Z,13.10
2022-09-26T13:43:47.755Z,14.13
2022-09-26T13:46:44.666Z,19.42
2022-09-26T13:49:52.049Z,15.48
2022-09-26T13:52:40.235Z,15.27
2022-09-26T13:55:12.260Z,14.35
2022-09-26T13:58:03.027Z,14.65
2022-09-26T14:00:30.647Z,10.82
2022-09-26T14:03:16.631Z,11.32
2022-09-26T14:05:44.308Z,15.75
2022-09-26T14:08:51.934Z,18.65
2022-09-26T14:11:19.213Z,16.50
2022-09-26T14:13:47.991Z,8.52
2022-09-26T14:16:36.913Z,6.75
2022-09-26T14:19:09.604Z,11.23
2022-09-26T14:22:03.234Z,9.05
2022-09-26T14:24:37.229Z,6.57
2022-09-26T14:27:10.358Z,13.90
2022-09-26T14:29:42.467Z,6.22
2022-09-26T14:32:12.288Z,7.63
2022-09-26T14:34:46.072Z,8.73
2022-09-26T14:37:25.294Z,19.13
2022-09-26T14:40:10.149Z,10.02
2022-09-26T14:42:50.074Z,10.15
2022-09-26T14:45:21.175Z,8.38
2022-09-26T14:48:23.156Z,9.68
2022-09-26T14:51:06.682Z,10.98
2022-09-26T14:54:08.966Z,11.13
2022-09-26T14:56:48.866Z,10.75
2022-09-26T14:59:25.243Z,9.55
2022-09-26T15:02:15.293Z,8.70
2022-09-26T15:05:07.150Z,8.65
2022-09-26T15:07:43.952Z,11.88
2022-09-26T15:10:11.928Z,8.50
2022-09-26T15:13:00.731Z,8.48
2022-09-26T15:15:44.862Z,10.93
2022-09-26T15:18:27.597Z,12.60
2022-09-26T15:21:04.802Z,10.30
2022-09-26T15:23:47.313Z,12.55
2022-09-26T15:26:21.773Z,17.48
2022-09-26T15:28:57.040Z,20.02
2022-09-26T15:31:44.000Z,16.27
2022-09-26T15:34:16.254Z,12.52
2022-09-26T15:36:52.647Z,11.55
2022-09-26T15:39:33.745Z,13.30
2022-09-26T15:42:34.077Z,13.27
2022-09-26T15:47:30.094Z,10.85
2022-09-26T15:50:25.128Z,16.65
2022-09-26T15:53:25.184Z,13.98
2022-09-26T15:58:36.855Z,12.50
2022-09-26T16:01:17.821Z,12.65
2022-09-26T16:04:07.966Z,11.48
2022-09-26T16:06:42.548Z,13.98
2022-09-26T16:09:25.351Z,11.32
2022-09-26T16:11:59.097Z,14.10
2022-09-26T16:14:58.596Z,11.48
2022-09-26T16:17:37.551Z,19.52
2022-09-26T16:20:18.611Z,13.50
2022-09-26T16:23:01.802Z,14.05
2022-09-26T16:25:32.730Z,16.08
2022-09-26T16:28:37.797Z,16.35
2022-09-26T16:31:09.987Z,14.90
2022-09-26T16:33:52.429Z,15.98
2022-09-26T16:36:27.465Z,13.90
2022-09-26T16:39:08.533Z,16.05
2022-09-26T16:44:38.674Z,14.73
2022-09-26T16:47:30.725Z,22.90
2022-09-26T16:50:16.222Z,18.97
2022-09-26T16:52:46.165Z,17.38
2022-09-26T16:55:16.752Z,19.10
2022-09-26T16:57:55.755Z,17.63
2022-09-26T17:00:51.972Z,16.90
2022-09-26T17:03:25.215Z,22.00
2022-09-26T17:05:57.665Z,20.13
2022-09-26T17:08:26.589Z,30.58
2022-09-26T17:10:56.331Z,50.35
2022-09-26T17:13:28.583Z,44.88
2022-09-26T17:16:01.218Z,33.42
2022-09-26T17:18:32.384Z,24.67
2022-09-26T17:21:02.902Z,27.35
2022-09-26T17:23:41.597Z,22.50
2022-09-26T17:26:19.935Z,21.63
2022-09-26T17:28:51.343Z,25.85
2022-09-26T17:31:20.209Z,20.33
2022-09-26T17:33:51.564Z,20.10
2022-09-26T17:36:27.974Z,25.52
2022-09-26T17:39:02.425Z,19.88
2022-09-26T17:41:32.716Z,20.48
2022-09-26T17:44:02.387Z,17.63
2022-09-26T17:46:33.888Z,20.85
2022-09-26T17:49:06.433Z,23.80
2022-09-26T17:51:42.217Z,23.08
2022-09-26T17:54:17.549Z,24.13
2022-09-26T17:56:48.457Z,29.00
2022-09-26T17:59:24.342Z,29.92
2022-09-26T18:02:33.971Z,29.10
2022-09-26T18:05:07.166Z,25.55
2022-09-26T18:07:43.496Z,27.90
2022-09-26T18:10:21.441Z,28.92
2022-09-26T18:13:00.256Z,30.50
2022-09-26T18:15:28.589Z,34.65
2022-09-26T18:17:56.848Z,30.25
2022-09-26T18:20:36.172Z,24.90
2022-09-26T18:23:11.220Z,22.27
2022-09-26T18:25:42.362Z,26.98
2022-09-26T18:28:19.972Z,27.13
2022-09-26T18:30:57.809Z,35.42
2022-09-26T18:33:27.986Z,23.80
2022-09-26T18:35:55.432Z,30.20
2022-09-26T18:38:22.656Z,26.80
2022-09-26T18:41:00.543Z,33.38
2022-09-26T18:43:39.069Z,27.13
2022-09-26T18:48:44.295Z,29.17
2022-09-26T18:51:13.886Z,34.92
2022-09-26T18:53:41.147Z,31.02
2022-09-26T18:56:28.946Z,28.65
2022-09-26T18:58:58.621Z,27.48
2022-09-26T19:01:45.812Z,31.98
2022-09-26T19:04:23.649Z,31.40
2022-09-26T19:07:00.893Z,29.38
2022-09-26T19:09:33.107Z,34.70
2022-09-26T19:12:01.402Z,24.98
2022-09-26T19:14:30.243Z,31.80
2022-09-26T19:17:03.417Z,29.40
2022-09-26T19:19:32.427Z,29.88
2022-09-26T19:22:01.156Z,26.15
2022-09-26T19:24:49.753Z,25.52
2022-09-26T19:27:54.047Z,26.15
2022-09-26T19:30:23.567Z,29.52
2022-09-26T19:32:53.036Z,27.58
2022-09-26T19:35:24.890Z,26.60
2022-09-26T19:37:54.975Z,28.23
2022-09-26T19:40:26.122Z,27.02
2022-09-26T19:42:55.147Z,31.00
2022-09-26T19:45:23.131Z,30.30
2022-09-26T19:47:53.199Z,24.90
2022-09-26T19:50:28.623Z,30.02
2022-09-26T19:53:01.124Z,37.45
2022-09-26T19:55:31.077Z,33.67
2022-09-26T19:58:06.846Z,25.25
2022-09-26T20:00:41.273Z,25.10
2022-09-26T20:03:29.579Z,27.20
2022-09-26T20:05:57.409Z,29.15
2022-09-26T20:08:26.710Z,31.52
2022-09-26T20:10:55.868Z,28.63
2022-09-26T20:13:25.446Z,27.42
2022-09-26T20:15:54.929Z,27.15
2022-09-26T20:18:24.139Z,30.17
2022-09-26T20:20:56.910Z,36.35
2022-09-26T20:23:26.755Z,29.05
2022-09-26T20:25:55.490Z,27.45
2022-09-26T20:28:25.082Z,35.08
2022-09-26T20:30:52.518Z,27.45
2022-09-26T20:33:26.755Z,32.38
2022-09-26T20:36:03.292Z,32.20
2022-09-26T20:38:47.895Z,37.22
2022-09-26T20:41:24.321Z,75.63
2022-09-26T20:44:01.698Z,37.35
2022-09-26T20:46:39.712Z,46.42
2022-09-26T20:49:13.243Z,38.03
2022-09-26T20:51:44.347Z,39.38
2022-09-26T20:54:25.381Z,41.60
2022-09-26T20:56:56.189Z,38.22
2022-09-26T20:59:29.655Z,44.20
2022-09-26T21:02:00.285Z,42.42
2022-09-26T21:04:32.778Z,42.03
2022-09-26T21:07:00.323Z,43.55
2022-09-26T21:09:30.818Z,48.50
2022-09-26T21:12:02.599Z,44.25
2022-09-26T21:14:38.950Z,41.00
2022-09-26T21:17:36.236Z,43.88
2022-09-26T21:20:12.412Z,42.90
2022-09-26T21:22:57.039Z,39.03
2022-09-26T21:25:26.413Z,44.72
2022-09-26T21:28:00.573Z,49.08
2022-09-26T21:30:33.983Z,44.17
2022-09-26T21:33:01.288Z,45.22
2022-09-26T21:35:31.089Z,42.95
2022-09-26T21:38:01.288Z,39.80
2022-09-26T21:40:31.762Z,43.45
2022-09-26T21:43:04.205Z,39.90
2022-09-26T21:45:33.952Z,41.40
2022-09-26T21:48:03.477Z,40.85
2022-09-26T21:50:30.744Z,44.42
2022-09-26T21:53:08.281Z,37.38
2022-09-26T21:55:43.806Z,39.13
2022-09-26T21:58:17.235Z,41.17
2022-09-26T22:00:44.538Z,44.67
2022-09-26T22:03:11.990Z,42.70
2022-09-26T22:05:39.378Z,41.22
2022-09-26T22:08:09.191Z,44.13
2022-09-26T22:10:37.005Z,40.75
2022-09-26T22:13:06.617Z,40.65
2022-09-26T22:15:36.146Z,45.25
2022-09-26T22:18:03.617Z,41.63
2022-09-26T22:20:30.711Z,38.72
2022-09-26T22:22:58.237Z,42.70
2022-09-26T22:25:30.743Z,47.63
2022-09-26T22:27:58.317Z,43.55
2022-09-26T22:30:28.391Z,37.03
2022-09-26T22:32:55.750Z,42.08
2022-09-26T22:35:27.671Z,37.67
2022-09-26T22:37:55.027Z,40.00
2022-09-26T22:40:29.380Z,39.58
2022-09-26T22:42:58.795Z,41.20
2022-09-26T22:45:28.739Z,43.78
2022-09-26T22:47:57.906Z,35.75
2022-09-26T22:50:27.627Z,47.40
2022-09-26T22:52:58.911Z,39.92
2022-09-26T22:55:28.129Z,44.85
2022-09-26T22:57:55.425Z,39.55
2022-09-26T23:00:27.569Z,40.42
2022-09-26T23:02:57.022Z,43.00
2022-09-26T23:05:26.937Z,41.78
2022-09-26T23:07:54.740Z,49.72
2022-09-26T23:10:24.525Z,43.80
2022-09-26T23:12:54.287Z,42.20
2022-09-26T23:15:21.559Z,41.60
2022-09-26T23:17:48.667Z,45.20
2022-09-26T23:20:21.267Z,41.58
2022-09-26T23:22:48.435Z,48.22
2022-09-26T23:25:18.784Z,42.20
2022-09-26T23:27:45.854Z,41.00
2022-09-26T23:30:15.209Z,40.42
2022-09-26T23:32:42.501Z,37.83
2022-09-26T23:35:11.750Z,34.55
2022-09-26T23:37:38.941Z,36.80
2022-09-26T23:40:06.714Z,48.78
2022-09-26T23:42:35.949Z,44.72
2022-09-26T23:45:03.312Z,51.15
2022-09-26T23:47:35.235Z,69.53
2022-09-26T23:50:06.046Z,83.07
2022-09-26T23:52:33.542Z,106.70
2022-09-26T23:55:00.792Z,114.13
2022-09-26T23:57:28.064Z,86.18
2022-09-26T23:59:55.440Z,82.63
